sensor_id;sensor_type;location;lat;lon;timestamp;temperature;humidity
38788;DHT22;24536;45.488;12.238;2023-03-31T00:02:04;15.10;90.10
38788;DHT22;24536;45.488;12.238;2023-03-31T00:04:41;15.10;90.10
38788;DHT22;24536;45.488;12.238;2023-03-31T00:07:17;15.10;90.10
38788;DHT22;24536;45.488;12.238;2023-03-31T00:09:47;15.10;90.20
38788;DHT22;24536;45.488;12.238;2023-03-31T00:12:15;15.10;90.10
38788;DHT22;24536;45.488;12.238;2023-03-31T00:14:42;15.10;90.20
38788;DHT22;24536;45.488;12.238;2023-03-31T00:17:08;15.00;90.20
38788;DHT22;24536;45.488;12.238;2023-03-31T00:19:35;15.00;90.30
38788;DHT22;24536;45.488;12.238;2023-03-31T00:22:01;15.00;90.30
38788;DHT22;24536;45.488;12.238;2023-03-31T00:24:28;15.00;90.30
38788;DHT22;24536;45.488;12.238;2023-03-31T00:27:01;15.00;90.30
38788;DHT22;24536;45.488;12.238;2023-03-31T00:29:27;14.90;90.20
38788;DHT22;24536;45.488;12.238;2023-03-31T00:31:53;14.90;90.50
38788;DHT22;24536;45.488;12.238;2023-03-31T00:34:20;14.90;90.50
38788;DHT22;24536;45.488;12.238;2023-03-31T00:36:45;14.90;90.40
38788;DHT22;24536;45.488;12.238;2023-03-31T00:39:17;14.90;90.50
38788;DHT22;24536;45.488;12.238;2023-03-31T00:41:43;14.90;90.50
38788;DHT22;24536;45.488;12.238;2023-03-31T00:44:23;14.90;90.60
38788;DHT22;24536;45.488;12.238;2023-03-31T00:47:11;14.80;90.70
38788;DHT22;24536;45.488;12.238;2023-03-31T00:49:43;14.70;90.60
38788;DHT22;24536;45.488;12.238;2023-03-31T00:52:19;14.70;90.80
38788;DHT22;24536;45.488;12.238;2023-03-31T00:54:55;14.60;90.90
38788;DHT22;24536;45.488;12.238;2023-03-31T00:57:22;14.60;91.00
38788;DHT22;24536;45.488;12.238;2023-03-31T00:59:52;14.60;91.00
38788;DHT22;24536;45.488;12.238;2023-03-31T01:02:21;14.60;91.00
38788;DHT22;24536;45.488;12.238;2023-03-31T01:04:52;14.60;91.00
38788;DHT22;24536;45.488;12.238;2023-03-31T01:07:24;14.60;91.00
38788;DHT22;24536;45.488;12.238;2023-03-31T01:09:52;14.60;91.10
38788;DHT22;24536;45.488;12.238;2023-03-31T01:14:49;14.50;91.00
38788;DHT22;24536;45.488;12.238;2023-03-31T01:17:17;14.50;91.10
38788;DHT22;24536;45.488;12.238;2023-03-31T01:25:17;14.50;91.20
38788;DHT22;24536;45.488;12.238;2023-03-31T01:27:59;14.50;91.30
38788;DHT22;24536;45.488;12.238;2023-03-31T01:30:55;14.50;91.30
38788;DHT22;24536;45.488;12.238;2023-03-31T01:36:07;14.40;91.20
38788;DHT22;24536;45.488;12.238;2023-03-31T01:44:42;14.40;91.40
38788;DHT22;24536;45.488;12.238;2023-03-31T01:47:16;14.40;91.60
38788;DHT22;24536;45.488;12.238;2023-03-31T01:55:01;14.30;91.60
38788;DHT22;24536;45.488;12.238;2023-03-31T02:00:20;14.30;91.60
38788;DHT22;24536;45.488;12.238;2023-03-31T02:03:15;14.30;91.60
38788;DHT22;24536;45.488;12.238;2023-03-31T02:05:46;14.30;91.80
38788;DHT22;24536;45.488;12.238;2023-03-31T02:08:45;14.30;91.60
38788;DHT22;24536;45.488;12.238;2023-03-31T02:11:13;14.30;91.70
38788;DHT22;24536;45.488;12.238;2023-03-31T02:13:40;14.30;91.70
38788;DHT22;24536;45.488;12.238;2023-03-31T02:16:12;14.20;91.70
38788;DHT22;24536;45.488;12.238;2023-03-31T02:18:46;14.30;91.70
38788;DHT22;24536;45.488;12.238;2023-03-31T02:21:14;14.20;91.60
38788;DHT22;24536;45.488;12.238;2023-03-31T02:23:41;14.20;91.80
38788;DHT22;24536;45.488;12.238;2023-03-31T02:28:37;14.30;91.80
38788;DHT22;24536;45.488;12.238;2023-03-31T02:31:21;14.30;91.70
38788;DHT22;24536;45.488;12.238;2023-03-31T02:33:48;14.30;91.70
38788;DHT22;24536;45.488;12.238;2023-03-31T02:36:15;14.30;91.80
38788;DHT22;24536;45.488;12.238;2023-03-31T02:38:49;14.20;91.70
38788;DHT22;24536;45.488;12.238;2023-03-31T02:41:16;14.20;91.80
38788;DHT22;24536;45.488;12.238;2023-03-31T02:43:42;14.10;91.80
38788;DHT22;24536;45.488;12.238;2023-03-31T02:46:08;14.10;91.80
38788;DHT22;24536;45.488;12.238;2023-03-31T02:48:40;14.10;91.90
38788;DHT22;24536;45.488;12.238;2023-03-31T02:59:26;14.20;92.00
38788;DHT22;24536;45.488;12.238;2023-03-31T03:01:47;14.20;92.00
38788;DHT22;24536;45.488;12.238;2023-03-31T03:07:05;14.30;91.90
38788;DHT22;24536;45.488;12.238;2023-03-31T03:15:47;14.30;91.80
38788;DHT22;24536;45.488;12.238;2023-03-31T03:18:14;14.30;91.90
38788;DHT22;24536;45.488;12.238;2023-03-31T03:20:43;14.30;91.90
38788;DHT22;24536;45.488;12.238;2023-03-31T03:23:14;14.30;92.00
38788;DHT22;24536;45.488;12.238;2023-03-31T03:25:41;14.30;92.00
38788;DHT22;24536;45.488;12.238;2023-03-31T03:28:06;14.30;92.00
38788;DHT22;24536;45.488;12.238;2023-03-31T03:30:32;14.30;92.00
38788;DHT22;24536;45.488;12.238;2023-03-31T03:32:58;14.20;92.10
38788;DHT22;24536;45.488;12.238;2023-03-31T03:35:24;14.20;92.20
38788;DHT22;24536;45.488;12.238;2023-03-31T03:37:50;14.20;92.10
38788;DHT22;24536;45.488;12.238;2023-03-31T03:40:16;14.20;92.10
38788;DHT22;24536;45.488;12.238;2023-03-31T03:42:42;14.20;92.10
38788;DHT22;24536;45.488;12.238;2023-03-31T03:45:08;14.20;92.10
38788;DHT22;24536;45.488;12.238;2023-03-31T03:47:34;14.20;92.00
38788;DHT22;24536;45.488;12.238;2023-03-31T03:50:01;14.20;92.10
38788;DHT22;24536;45.488;12.238;2023-03-31T03:52:26;14.20;92.10
38788;DHT22;24536;45.488;12.238;2023-03-31T03:54:52;14.20;92.10
38788;DHT22;24536;45.488;12.238;2023-03-31T03:57:18;14.20;92.10
38788;DHT22;24536;45.488;12.238;2023-03-31T03:59:44;14.20;92.30
38788;DHT22;24536;45.488;12.238;2023-03-31T04:02:10;14.20;92.20
38788;DHT22;24536;45.488;12.238;2023-03-31T04:04:36;14.20;92.20
38788;DHT22;24536;45.488;12.238;2023-03-31T04:07:01;14.20;92.20
38788;DHT22;24536;45.488;12.238;2023-03-31T04:09:27;14.20;92.20
38788;DHT22;24536;45.488;12.238;2023-03-31T04:11:53;14.20;92.20
38788;DHT22;24536;45.488;12.238;2023-03-31T04:14:19;14.20;92.40
38788;DHT22;24536;45.488;12.238;2023-03-31T04:16:44;14.20;92.30
38788;DHT22;24536;45.488;12.238;2023-03-31T04:19:12;14.20;92.30
38788;DHT22;24536;45.488;12.238;2023-03-31T04:21:38;14.20;92.40
38788;DHT22;24536;45.488;12.238;2023-03-31T04:24:10;14.20;92.40
38788;DHT22;24536;45.488;12.238;2023-03-31T04:26:40;14.20;92.70
38788;DHT22;24536;45.488;12.238;2023-03-31T04:29:10;14.10;92.60
38788;DHT22;24536;45.488;12.238;2023-03-31T04:31:41;14.20;92.70
38788;DHT22;24536;45.488;12.238;2023-03-31T04:34:11;14.20;92.70
38788;DHT22;24536;45.488;12.238;2023-03-31T04:36:45;14.10;92.80
38788;DHT22;24536;45.488;12.238;2023-03-31T04:39:18;14.10;92.60
38788;DHT22;24536;45.488;12.238;2023-03-31T04:41:56;14.10;92.90
38788;DHT22;24536;45.488;12.238;2023-03-31T04:44:22;14.10;92.90
38788;DHT22;24536;45.488;12.238;2023-03-31T04:46:48;14.10;92.70
38788;DHT22;24536;45.488;12.238;2023-03-31T04:49:13;14.20;92.90
38788;DHT22;24536;45.488;12.238;2023-03-31T04:51:41;14.20;93.00
38788;DHT22;24536;45.488;12.238;2023-03-31T04:54:06;14.20;92.90
38788;DHT22;24536;45.488;12.238;2023-03-31T04:56:32;14.20;92.70
38788;DHT22;24536;45.488;12.238;2023-03-31T04:58:58;14.30;92.90
38788;DHT22;24536;45.488;12.238;2023-03-31T05:01:24;14.30;92.80
38788;DHT22;24536;45.488;12.238;2023-03-31T05:03:49;14.20;92.70
38788;DHT22;24536;45.488;12.238;2023-03-31T05:06:16;14.20;92.70
38788;DHT22;24536;45.488;12.238;2023-03-31T05:08:42;14.20;92.90
38788;DHT22;24536;45.488;12.238;2023-03-31T05:11:08;14.20;92.80
38788;DHT22;24536;45.488;12.238;2023-03-31T05:13:34;14.20;92.80
38788;DHT22;24536;45.488;12.238;2023-03-31T05:16:08;14.20;92.90
38788;DHT22;24536;45.488;12.238;2023-03-31T05:18:36;14.20;92.70
38788;DHT22;24536;45.488;12.238;2023-03-31T05:21:18;14.30;92.90
38788;DHT22;24536;45.488;12.238;2023-03-31T05:23:45;14.20;93.00
38788;DHT22;24536;45.488;12.238;2023-03-31T05:26:12;14.20;92.80
38788;DHT22;24536;45.488;12.238;2023-03-31T05:28:38;14.30;93.00
38788;DHT22;24536;45.488;12.238;2023-03-31T05:31:05;14.30;92.70
38788;DHT22;24536;45.488;12.238;2023-03-31T05:33:31;14.30;92.90
38788;DHT22;24536;45.488;12.238;2023-03-31T05:38:27;14.30;92.80
38788;DHT22;24536;45.488;12.238;2023-03-31T05:40:56;14.20;93.10
38788;DHT22;24536;45.488;12.238;2023-03-31T05:43:22;14.30;92.80
38788;DHT22;24536;45.488;12.238;2023-03-31T05:45:47;14.30;93.00
38788;DHT22;24536;45.488;12.238;2023-03-31T05:48:13;14.30;93.00
38788;DHT22;24536;45.488;12.238;2023-03-31T05:50:38;14.30;93.20
38788;DHT22;24536;45.488;12.238;2023-03-31T05:53:04;14.30;93.10
38788;DHT22;24536;45.488;12.238;2023-03-31T05:55:30;14.30;93.00
38788;DHT22;24536;45.488;12.238;2023-03-31T05:57:56;14.20;93.40
38788;DHT22;24536;45.488;12.238;2023-03-31T06:00:21;14.30;93.00
38788;DHT22;24536;45.488;12.238;2023-03-31T06:02:47;14.30;93.10
38788;DHT22;24536;45.488;12.238;2023-03-31T06:05:13;14.30;93.20
38788;DHT22;24536;45.488;12.238;2023-03-31T06:07:38;14.40;93.10
38788;DHT22;24536;45.488;12.238;2023-03-31T06:10:05;14.30;93.10
38788;DHT22;24536;45.488;12.238;2023-03-31T06:12:32;14.30;93.20
38788;DHT22;24536;45.488;12.238;2023-03-31T06:14:58;14.40;93.20
38788;DHT22;24536;45.488;12.238;2023-03-31T06:17:23;14.40;93.20
38788;DHT22;24536;45.488;12.238;2023-03-31T06:22:18;14.30;92.80
38788;DHT22;24536;45.488;12.238;2023-03-31T06:24:43;14.40;93.10
38788;DHT22;24536;45.488;12.238;2023-03-31T06:27:10;14.40;93.10
38788;DHT22;24536;45.488;12.238;2023-03-31T06:29:36;14.40;92.90
38788;DHT22;24536;45.488;12.238;2023-03-31T06:32:02;14.50;92.60
38788;DHT22;24536;45.488;12.238;2023-03-31T06:34:29;14.50;92.80
38788;DHT22;24536;45.488;12.238;2023-03-31T06:36:55;14.60;92.80
38788;DHT22;24536;45.488;12.238;2023-03-31T06:39:21;14.60;92.70
38788;DHT22;24536;45.488;12.238;2023-03-31T06:41:46;14.70;92.60
38788;DHT22;24536;45.488;12.238;2023-03-31T06:44:12;14.70;92.60
38788;DHT22;24536;45.488;12.238;2023-03-31T06:46:41;14.70;92.50
38788;DHT22;24536;45.488;12.238;2023-03-31T06:51:33;14.60;92.30
38788;DHT22;24536;45.488;12.238;2023-03-31T06:53:59;14.70;92.50
38788;DHT22;24536;45.488;12.238;2023-03-31T06:56:24;14.70;92.50
38788;DHT22;24536;45.488;12.238;2023-03-31T06:58:51;14.80;92.20
38788;DHT22;24536;45.488;12.238;2023-03-31T07:01:17;14.80;92.10
38788;DHT22;24536;45.488;12.238;2023-03-31T07:03:43;14.80;92.30
38788;DHT22;24536;45.488;12.238;2023-03-31T07:06:08;14.90;92.20
38788;DHT22;24536;45.488;12.238;2023-03-31T07:08:34;14.90;92.20
38788;DHT22;24536;45.488;12.238;2023-03-31T07:11:01;14.90;92.10
38788;DHT22;24536;45.488;12.238;2023-03-31T07:15:54;15.00;91.80
38788;DHT22;24536;45.488;12.238;2023-03-31T07:18:20;15.00;92.00
38788;DHT22;24536;45.488;12.238;2023-03-31T07:20:50;15.00;92.00
38788;DHT22;24536;45.488;12.238;2023-03-31T07:25:42;15.10;91.70
38788;DHT22;24536;45.488;12.238;2023-03-31T07:28:08;15.10;91.80
38788;DHT22;24536;45.488;12.238;2023-03-31T07:30:34;15.10;91.70
38788;DHT22;24536;45.488;12.238;2023-03-31T07:33:00;15.20;91.70
38788;DHT22;24536;45.488;12.238;2023-03-31T07:35:26;15.20;91.50
38788;DHT22;24536;45.488;12.238;2023-03-31T07:40:24;15.20;91.30
38788;DHT22;24536;45.488;12.238;2023-03-31T07:45:22;15.20;91.40
38788;DHT22;24536;45.488;12.238;2023-03-31T07:47:49;15.10;91.40
38788;DHT22;24536;45.488;12.238;2023-03-31T07:50:19;15.20;91.30
38788;DHT22;24536;45.488;12.238;2023-03-31T07:52:48;15.20;91.30
38788;DHT22;24536;45.488;12.238;2023-03-31T07:57:42;15.30;91.40
38788;DHT22;24536;45.488;12.238;2023-03-31T08:00:11;15.30;91.40
38788;DHT22;24536;45.488;12.238;2023-03-31T08:02:39;15.30;91.40
38788;DHT22;24536;45.488;12.238;2023-03-31T08:05:08;15.30;91.40
38788;DHT22;24536;45.488;12.238;2023-03-31T08:07:35;15.30;91.60
38788;DHT22;24536;45.488;12.238;2023-03-31T08:10:10;15.40;91.40
38788;DHT22;24536;45.488;12.238;2023-03-31T08:12:36;15.40;91.40
38788;DHT22;24536;45.488;12.238;2023-03-31T08:15:05;15.40;91.30
38788;DHT22;24536;45.488;12.238;2023-03-31T08:17:31;15.40;91.30
38788;DHT22;24536;45.488;12.238;2023-03-31T08:19:57;15.40;91.40
38788;DHT22;24536;45.488;12.238;2023-03-31T08:22:22;15.40;91.60
38788;DHT22;24536;45.488;12.238;2023-03-31T08:27:14;15.40;91.50
38788;DHT22;24536;45.488;12.238;2023-03-31T08:29:40;15.40;91.70
38788;DHT22;24536;45.488;12.238;2023-03-31T08:32:06;15.40;91.70
38788;DHT22;24536;45.488;12.238;2023-03-31T08:34:32;15.40;91.60
38788;DHT22;24536;45.488;12.238;2023-03-31T08:44:29;15.50;91.60
38788;DHT22;24536;45.488;12.238;2023-03-31T08:49:27;15.50;91.60
38788;DHT22;24536;45.488;12.238;2023-03-31T08:51:58;15.50;91.70
38788;DHT22;24536;45.488;12.238;2023-03-31T08:56:52;15.60;91.60
38788;DHT22;24536;45.488;12.238;2023-03-31T08:59:34;15.60;91.70
38788;DHT22;24536;45.488;12.238;2023-03-31T09:02:10;15.60;91.50
38788;DHT22;24536;45.488;12.238;2023-03-31T09:05:04;15.60;91.50
38788;DHT22;24536;45.488;12.238;2023-03-31T09:15:11;15.60;91.50
38788;DHT22;24536;45.488;12.238;2023-03-31T09:17:43;15.60;91.50
38788;DHT22;24536;45.488;12.238;2023-03-31T09:20:33;15.60;91.70
38788;DHT22;24536;45.488;12.238;2023-03-31T09:25:38;15.70;91.70
38788;DHT22;24536;45.488;12.238;2023-03-31T09:30:37;15.90;91.40
38788;DHT22;24536;45.488;12.238;2023-03-31T09:33:15;15.90;91.50
38788;DHT22;24536;45.488;12.238;2023-03-31T09:35:42;15.90;91.40
38788;DHT22;24536;45.488;12.238;2023-03-31T09:38:11;16.00;91.40
38788;DHT22;24536;45.488;12.238;2023-03-31T09:40:38;16.00;91.30
38788;DHT22;24536;45.488;12.238;2023-03-31T09:43:16;16.00;91.20
38788;DHT22;24536;45.488;12.238;2023-03-31T09:45:44;15.90;91.20
38788;DHT22;24536;45.488;12.238;2023-03-31T09:48:14;16.00;91.10
38788;DHT22;24536;45.488;12.238;2023-03-31T09:50:59;16.10;91.20
38788;DHT22;24536;45.488;12.238;2023-03-31T09:53:38;16.10;91.40
38788;DHT22;24536;45.488;12.238;2023-03-31T09:56:06;16.20;91.30
38788;DHT22;24536;45.488;12.238;2023-03-31T09:58:43;16.30;91.20
38788;DHT22;24536;45.488;12.238;2023-03-31T10:01:12;16.30;91.10
38788;DHT22;24536;45.488;12.238;2023-03-31T10:03:49;16.40;91.00
38788;DHT22;24536;45.488;12.238;2023-03-31T10:06:15;16.40;90.90
38788;DHT22;24536;45.488;12.238;2023-03-31T10:11:12;16.50;90.80
38788;DHT22;24536;45.488;12.238;2023-03-31T10:13:51;16.40;90.50
38788;DHT22;24536;45.488;12.238;2023-03-31T10:16:21;16.40;90.40
38788;DHT22;24536;45.488;12.238;2023-03-31T10:18:47;16.50;90.60
38788;DHT22;24536;45.488;12.238;2023-03-31T10:21:25;16.50;90.40
38788;DHT22;24536;45.488;12.238;2023-03-31T10:23:52;16.50;90.60
38788;DHT22;24536;45.488;12.238;2023-03-31T10:26:23;16.60;90.60
38788;DHT22;24536;45.488;12.238;2023-03-31T10:28:51;16.70;90.60
38788;DHT22;24536;45.488;12.238;2023-03-31T10:31:18;16.70;90.40
38788;DHT22;24536;45.488;12.238;2023-03-31T10:33:47;16.80;90.40
38788;DHT22;24536;45.488;12.238;2023-03-31T10:36:26;16.80;90.30
38788;DHT22;24536;45.488;12.238;2023-03-31T10:38:53;16.80;90.30
38788;DHT22;24536;45.488;12.238;2023-03-31T10:41:21;16.90;90.00
38788;DHT22;24536;45.488;12.238;2023-03-31T10:43:50;17.00;90.20
38788;DHT22;24536;45.488;12.238;2023-03-31T10:46:16;17.00;90.00
38788;DHT22;24536;45.488;12.238;2023-03-31T10:48:42;17.00;89.00
38788;DHT22;24536;45.488;12.238;2023-03-31T10:51:19;17.10;88.90
38788;DHT22;24536;45.488;12.238;2023-03-31T10:53:47;17.10;89.30
38788;DHT22;24536;45.488;12.238;2023-03-31T10:56:51;17.20;89.00
38788;DHT22;24536;45.488;12.238;2023-03-31T11:10:29;17.50;87.10
38788;DHT22;24536;45.488;12.238;2023-03-31T11:13:10;17.50;87.40
38788;DHT22;24536;45.488;12.238;2023-03-31T11:15:53;17.60;86.30
38788;DHT22;24536;45.488;12.238;2023-03-31T11:18:29;17.60;86.80
38788;DHT22;24536;45.488;12.238;2023-03-31T11:23:45;17.70;85.60
38788;DHT22;24536;45.488;12.238;2023-03-31T11:42:43;17.90;86.00
38788;DHT22;24536;45.488;12.238;2023-03-31T11:45:22;17.90;83.40
38788;DHT22;24536;45.488;12.238;2023-03-31T11:47:52;17.90;83.80
38788;DHT22;24536;45.488;12.238;2023-03-31T11:50:21;17.90;84.20
38788;DHT22;24536;45.488;12.238;2023-03-31T11:52:52;18.00;85.40
38788;DHT22;24536;45.488;12.238;2023-03-31T11:55:21;18.00;83.50
38788;DHT22;24536;45.488;12.238;2023-03-31T12:00:20;18.10;84.00
38788;DHT22;24536;45.488;12.238;2023-03-31T12:03:07;18.20;83.80
38788;DHT22;24536;45.488;12.238;2023-03-31T12:05:37;18.30;82.90
38788;DHT22;24536;45.488;12.238;2023-03-31T12:08:18;18.40;82.90
38788;DHT22;24536;45.488;12.238;2023-03-31T12:10:58;18.40;83.30
38788;DHT22;24536;45.488;12.238;2023-03-31T12:16:16;18.50;83.60
38788;DHT22;24536;45.488;12.238;2023-03-31T12:21:46;18.60;83.50
38788;DHT22;24536;45.488;12.238;2023-03-31T12:24:12;18.60;83.30
38788;DHT22;24536;45.488;12.238;2023-03-31T12:26:48;18.60;82.70
38788;DHT22;24536;45.488;12.238;2023-03-31T12:29:35;18.60;82.60
38788;DHT22;24536;45.488;12.238;2023-03-31T12:32:06;18.60;82.40
38788;DHT22;24536;45.488;12.238;2023-03-31T12:34:35;18.60;83.00
38788;DHT22;24536;45.488;12.238;2023-03-31T12:45:49;18.80;82.90
38788;DHT22;24536;45.488;12.238;2023-03-31T12:48:39;18.70;82.90
38788;DHT22;24536;45.488;12.238;2023-03-31T12:57:29;18.90;82.90
38788;DHT22;24536;45.488;12.238;2023-03-31T12:59:38;18.90;83.20
38788;DHT22;24536;45.488;12.238;2023-03-31T13:04:37;19.10;82.80
38788;DHT22;24536;45.488;12.238;2023-03-31T13:07:04;19.10;81.70
38788;DHT22;24536;45.488;12.238;2023-03-31T13:09:42;19.00;81.60
38788;DHT22;24536;45.488;12.238;2023-03-31T13:12:16;19.00;82.60
38788;DHT22;24536;45.488;12.238;2023-03-31T13:14:45;18.90;81.60
38788;DHT22;24536;45.488;12.238;2023-03-31T13:17:26;18.90;81.40
38788;DHT22;24536;45.488;12.238;2023-03-31T13:19:54;18.90;81.80
38788;DHT22;24536;45.488;12.238;2023-03-31T13:22:34;18.80;80.90
38788;DHT22;24536;45.488;12.238;2023-03-31T13:27:58;18.70;81.00
38788;DHT22;24536;45.488;12.238;2023-03-31T13:35:30;18.50;81.00
38788;DHT22;24536;45.488;12.238;2023-03-31T13:59:30;17.80;83.80
38788;DHT22;24536;45.488;12.238;2023-03-31T14:10:34;17.60;83.80
38788;DHT22;24536;45.488;12.238;2023-03-31T14:13:14;17.50;83.80
38788;DHT22;24536;45.488;12.238;2023-03-31T14:15:50;17.50;84.20
38788;DHT22;24536;45.488;12.238;2023-03-31T14:18:29;17.50;83.70
38788;DHT22;24536;45.488;12.238;2023-03-31T14:32:06;17.30;83.90
38788;DHT22;24536;45.488;12.238;2023-03-31T14:35:09;17.20;83.60
38788;DHT22;24536;45.488;12.238;2023-03-31T14:37:39;17.20;84.00
38788;DHT22;24536;45.488;12.238;2023-03-31T14:40:09;17.20;83.80
38788;DHT22;24536;45.488;12.238;2023-03-31T14:42:38;17.20;84.30
38788;DHT22;24536;45.488;12.238;2023-03-31T14:45:31;17.20;84.40
38788;DHT22;24536;45.488;12.238;2023-03-31T14:48:08;17.20;84.20
38788;DHT22;24536;45.488;12.238;2023-03-31T14:50:36;17.10;84.10
38788;DHT22;24536;45.488;12.238;2023-03-31T14:53:02;17.10;84.00
38788;DHT22;24536;45.488;12.238;2023-03-31T14:55:30;17.10;84.30
38788;DHT22;24536;45.488;12.238;2023-03-31T14:57:59;17.00;84.90
38788;DHT22;24536;45.488;12.238;2023-03-31T15:00:29;17.00;84.90
38788;DHT22;24536;45.488;12.238;2023-03-31T15:02:57;17.00;85.30
38788;DHT22;24536;45.488;12.238;2023-03-31T15:05:29;17.00;85.10
38788;DHT22;24536;45.488;12.238;2023-03-31T15:08:00;17.00;85.20
38788;DHT22;24536;45.488;12.238;2023-03-31T15:10:39;17.00;85.50
38788;DHT22;24536;45.488;12.238;2023-03-31T15:13:08;17.00;86.00
38788;DHT22;24536;45.488;12.238;2023-03-31T15:15:36;16.90;85.90
38788;DHT22;24536;45.488;12.238;2023-03-31T15:18:02;16.90;85.80
38788;DHT22;24536;45.488;12.238;2023-03-31T15:20:38;16.90;86.20
38788;DHT22;24536;45.488;12.238;2023-03-31T15:23:25;16.90;86.40
38788;DHT22;24536;45.488;12.238;2023-03-31T15:26:01;16.80;86.30
38788;DHT22;24536;45.488;12.238;2023-03-31T15:28:32;16.80;86.60
38788;DHT22;24536;45.488;12.238;2023-03-31T15:31:01;16.80;86.80
38788;DHT22;24536;45.488;12.238;2023-03-31T15:33:32;16.80;86.60
38788;DHT22;24536;45.488;12.238;2023-03-31T15:36:01;16.80;87.00
38788;DHT22;24536;45.488;12.238;2023-03-31T15:38:30;16.80;86.90
38788;DHT22;24536;45.488;12.238;2023-03-31T15:40:57;16.80;87.10
38788;DHT22;24536;45.488;12.238;2023-03-31T15:43:29;16.80;87.20
38788;DHT22;24536;45.488;12.238;2023-03-31T15:45:59;16.80;87.80
38788;DHT22;24536;45.488;12.238;2023-03-31T15:48:28;16.80;87.60
38788;DHT22;24536;45.488;12.238;2023-03-31T15:53:42;16.80;88.30
38788;DHT22;24536;45.488;12.238;2023-03-31T15:59:00;16.80;88.60
38788;DHT22;24536;45.488;12.238;2023-03-31T16:01:38;16.70;88.50
38788;DHT22;24536;45.488;12.238;2023-03-31T16:04:11;16.70;89.20
38788;DHT22;24536;45.488;12.238;2023-03-31T16:06:46;16.70;88.40
38788;DHT22;24536;45.488;12.238;2023-03-31T16:09:25;16.70;88.30
38788;DHT22;24536;45.488;12.238;2023-03-31T16:11:56;16.70;88.70
38788;DHT22;24536;45.488;12.238;2023-03-31T16:14:33;16.70;88.20
38788;DHT22;24536;45.488;12.238;2023-03-31T16:17:07;16.60;88.50
38788;DHT22;24536;45.488;12.238;2023-03-31T16:19:47;16.60;88.50
38788;DHT22;24536;45.488;12.238;2023-03-31T16:22:20;16.60;88.70
38788;DHT22;24536;45.488;12.238;2023-03-31T16:24:47;16.60;88.70
38788;DHT22;24536;45.488;12.238;2023-03-31T16:27:13;16.60;88.40
38788;DHT22;24536;45.488;12.238;2023-03-31T16:29:39;16.50;88.70
38788;DHT22;24536;45.488;12.238;2023-03-31T16:32:16;16.60;88.80
38788;DHT22;24536;45.488;12.238;2023-03-31T16:37:18;16.60;89.00
38788;DHT22;24536;45.488;12.238;2023-03-31T16:39:43;16.60;89.00
38788;DHT22;24536;45.488;12.238;2023-03-31T16:42:09;16.60;89.10
38788;DHT22;24536;45.488;12.238;2023-03-31T16:44:35;16.50;89.20
38788;DHT22;24536;45.488;12.238;2023-03-31T16:47:00;16.50;89.10
38788;DHT22;24536;45.488;12.238;2023-03-31T16:49:26;16.50;89.40
38788;DHT22;24536;45.488;12.238;2023-03-31T16:51:52;16.50;89.60
38788;DHT22;24536;45.488;12.238;2023-03-31T16:54:18;16.50;89.90
38788;DHT22;24536;45.488;12.238;2023-03-31T16:56:43;16.50;90.10
38788;DHT22;24536;45.488;12.238;2023-03-31T16:59:10;16.50;90.20
38788;DHT22;24536;45.488;12.238;2023-03-31T17:01:35;16.40;90.30
38788;DHT22;24536;45.488;12.238;2023-03-31T17:04:01;16.40;90.40
38788;DHT22;24536;45.488;12.238;2023-03-31T17:06:27;16.40;90.50
38788;DHT22;24536;45.488;12.238;2023-03-31T17:08:52;16.40;90.50
38788;DHT22;24536;45.488;12.238;2023-03-31T17:11:18;16.40;90.50
38788;DHT22;24536;45.488;12.238;2023-03-31T17:13:44;16.40;90.80
38788;DHT22;24536;45.488;12.238;2023-03-31T17:16:11;16.40;90.60
38788;DHT22;24536;45.488;12.238;2023-03-31T17:18:37;16.40;90.80
38788;DHT22;24536;45.488;12.238;2023-03-31T17:21:11;16.40;90.80
38788;DHT22;24536;45.488;12.238;2023-03-31T17:23:37;16.40;90.70
38788;DHT22;24536;45.488;12.238;2023-03-31T17:26:04;16.30;90.70
38788;DHT22;24536;45.488;12.238;2023-03-31T17:28:32;16.30;90.90
38788;DHT22;24536;45.488;12.238;2023-03-31T17:30:58;16.30;90.80
38788;DHT22;24536;45.488;12.238;2023-03-31T17:33:24;16.20;91.00
38788;DHT22;24536;45.488;12.238;2023-03-31T17:35:54;16.30;90.90
38788;DHT22;24536;45.488;12.238;2023-03-31T17:38:20;16.20;91.10
38788;DHT22;24536;45.488;12.238;2023-03-31T17:40:47;16.30;91.20
38788;DHT22;24536;45.488;12.238;2023-03-31T17:43:13;16.20;91.30
38788;DHT22;24536;45.488;12.238;2023-03-31T17:45:39;16.20;91.10
38788;DHT22;24536;45.488;12.238;2023-03-31T17:48:05;16.20;91.30
38788;DHT22;24536;45.488;12.238;2023-03-31T17:50:31;16.20;91.40
38788;DHT22;24536;45.488;12.238;2023-03-31T17:52:57;16.20;91.30
38788;DHT22;24536;45.488;12.238;2023-03-31T17:55:23;16.20;91.50
38788;DHT22;24536;45.488;12.238;2023-03-31T17:57:49;16.20;91.40
38788;DHT22;24536;45.488;12.238;2023-03-31T18:00:15;16.20;91.70
38788;DHT22;24536;45.488;12.238;2023-03-31T18:02:41;16.20;91.60
38788;DHT22;24536;45.488;12.238;2023-03-31T18:05:08;16.20;91.80
38788;DHT22;24536;45.488;12.238;2023-03-31T18:07:35;16.20;91.80
38788;DHT22;24536;45.488;12.238;2023-03-31T18:12:31;16.20;91.80
38788;DHT22;24536;45.488;12.238;2023-03-31T18:14:57;16.20;92.00
38788;DHT22;24536;45.488;12.238;2023-03-31T18:17:22;16.10;92.10
38788;DHT22;24536;45.488;12.238;2023-03-31T18:19:48;16.10;92.20
38788;DHT22;24536;45.488;12.238;2023-03-31T18:22:14;16.10;92.40
38788;DHT22;24536;45.488;12.238;2023-03-31T18:24:40;16.10;92.50
38788;DHT22;24536;45.488;12.238;2023-03-31T18:27:06;16.10;92.50
38788;DHT22;24536;45.488;12.238;2023-03-31T18:29:32;16.10;92.50
38788;DHT22;24536;45.488;12.238;2023-03-31T18:31:58;16.00;92.80
38788;DHT22;24536;45.488;12.238;2023-03-31T18:34:24;16.00;92.70
38788;DHT22;24536;45.488;12.238;2023-03-31T18:36:49;15.90;92.80
38788;DHT22;24536;45.488;12.238;2023-03-31T18:39:15;15.80;92.80
38788;DHT22;24536;45.488;12.238;2023-03-31T18:41:45;15.90;93.00
38788;DHT22;24536;45.488;12.238;2023-03-31T18:44:12;15.90;92.90
38788;DHT22;24536;45.488;12.238;2023-03-31T18:46:41;15.90;92.90
38788;DHT22;24536;45.488;12.238;2023-03-31T18:49:07;15.90;93.10
38788;DHT22;24536;45.488;12.238;2023-03-31T18:51:33;15.90;93.00
38788;DHT22;24536;45.488;12.238;2023-03-31T18:53:58;15.90;93.00
38788;DHT22;24536;45.488;12.238;2023-03-31T18:58:50;15.90;93.10
38788;DHT22;24536;45.488;12.238;2023-03-31T19:01:17;15.90;93.30
38788;DHT22;24536;45.488;12.238;2023-03-31T19:03:44;15.90;93.30